sensor_id;sensor_type;location;lat;lon;timestamp;P1;durP1;ratioP1;P2;durP2;ratioP2
59474;SDS011;45288;51.136;16.928;2023-10-13T00:01:05;118.25;;;108.53;;
59474;SDS011;45288;51.136;16.928;2023-10-13T00:03:32;118.05;;;107.97;;
59474;SDS011;45288;51.136;16.928;2023-10-13T00:05:58;92.17;;;83.00;;
59474;SDS011;45288;51.136;16.928;2023-10-13T00:08:29;230.37;;;211.63;;
59474;SDS011;45288;51.136;16.928;2023-10-13T00:10:55;145.73;;;133.63;;
59474;SDS011;45288;51.136;16.928;2023-10-13T00:13:28;247.65;;;227.77;;
59474;SDS011;45288;51.136;16.928;2023-10-13T00:15:57;108.90;;;98.28;;
59474;SDS011;45288;51.136;16.928;2023-10-13T00:18:27;115.45;;;105.18;;
59474;SDS011;45288;51.136;16.928;2023-10-13T00:21:02;55.58;;;36.55;;
59474;SDS011;45288;51.136;16.928;2023-10-13T00:23:56;46.22;;;15.80;;
59474;SDS011;45288;51.136;16.928;2023-10-13T00:26:26;44.33;;;15.13;;
59474;SDS011;45288;51.136;16.928;2023-10-13T00:28:57;44.75;;;14.70;;
59474;SDS011;45288;51.136;16.928;2023-10-13T00:31:35;45.88;;;15.50;;
59474;SDS011;45288;51.136;16.928;2023-10-13T00:34:01;30.10;;;13.05;;
59474;SDS011;45288;51.136;16.928;2023-10-13T00:36:35;37.40;;;14.55;;
59474;SDS011;45288;51.136;16.928;2023-10-13T00:39:01;42.22;;;14.50;;
59474;SDS011;45288;51.136;16.928;2023-10-13T00:41:29;43.72;;;15.52;;
59474;SDS011;45288;51.136;16.928;2023-10-13T00:44:13;136.57;;;125.10;;
59474;SDS011;45288;51.136;16.928;2023-10-13T00:46:41;169.68;;;155.82;;
59474;SDS011;45288;51.136;16.928;2023-10-13T00:49:10;98.85;;;90.13;;
59474;SDS011;45288;51.136;16.928;2023-10-13T00:51:41;69.47;;;56.83;;
59474;SDS011;45288;51.136;16.928;2023-10-13T00:54:13;51.08;;;28.70;;
59474;SDS011;45288;51.136;16.928;2023-10-13T00:56:39;53.05;;;18.73;;
59474;SDS011;45288;51.136;16.928;2023-10-13T00:59:18;41.17;;;14.90;;
59474;SDS011;45288;51.136;16.928;2023-10-13T01:01:49;47.75;;;16.45;;
59474;SDS011;45288;51.136;16.928;2023-10-13T01:04:21;43.80;;;16.67;;
59474;SDS011;45288;51.136;16.928;2023-10-13T01:06:48;51.67;;;39.63;;
59474;SDS011;45288;51.136;16.928;2023-10-13T01:09:14;61.30;;;50.08;;
59474;SDS011;45288;51.136;16.928;2023-10-13T01:11:45;62.73;;;48.97;;
59474;SDS011;45288;51.136;16.928;2023-10-13T01:14:12;71.35;;;63.83;;
59474;SDS011;45288;51.136;16.928;2023-10-13T01:16:40;65.33;;;58.27;;
59474;SDS011;45288;51.136;16.928;2023-10-13T01:19:10;42.67;;;22.13;;
59474;SDS011;45288;51.136;16.928;2023-10-13T01:21:38;41.30;;;15.90;;
59474;SDS011;45288;51.136;16.928;2023-10-13T01:24:06;42.60;;;16.00;;
59474;SDS011;45288;51.136;16.928;2023-10-13T01:26:34;40.42;;;14.07;;
59474;SDS011;45288;51.136;16.928;2023-10-13T01:29:07;37.72;;;13.93;;
59474;SDS011;45288;51.136;16.928;2023-10-13T01:31:43;49.65;;;15.70;;
59474;SDS011;45288;51.136;16.928;2023-10-13T01:34:16;35.10;;;12.95;;
59474;SDS011;45288;51.136;16.928;2023-10-13T01:36:48;40.35;;;14.73;;
59474;SDS011;45288;51.136;16.928;2023-10-13T01:39:16;37.67;;;13.77;;
59474;SDS011;45288;51.136;16.928;2023-10-13T01:41:42;44.53;;;15.82;;
59474;SDS011;45288;51.136;16.928;2023-10-13T01:44:08;40.07;;;13.93;;
59474;SDS011;45288;51.136;16.928;2023-10-13T01:46:40;42.70;;;13.77;;
59474;SDS011;45288;51.136;16.928;2023-10-13T01:49:08;36.40;;;13.67;;
59474;SDS011;45288;51.136;16.928;2023-10-13T01:51:34;39.00;;;14.40;;
59474;SDS011;45288;51.136;16.928;2023-10-13T01:53:59;37.17;;;13.95;;
59474;SDS011;45288;51.136;16.928;2023-10-13T01:56:28;34.45;;;13.27;;
59474;SDS011;45288;51.136;16.928;2023-10-13T01:58:57;40.57;;;14.67;;
59474;SDS011;45288;51.136;16.928;2023-10-13T02:01:22;39.28;;;14.15;;
59474;SDS011;45288;51.136;16.928;2023-10-13T02:03:58;39.17;;;14.68;;
59474;SDS011;45288;51.136;16.928;2023-10-13T02:06:38;37.55;;;14.20;;
59474;SDS011;45288;51.136;16.928;2023-10-13T02:09:04;40.40;;;15.15;;
59474;SDS011;45288;51.136;16.928;2023-10-13T02:11:42;38.00;;;15.00;;
59474;SDS011;45288;51.136;16.928;2023-10-13T02:14:11;37.95;;;14.90;;
59474;SDS011;45288;51.136;16.928;2023-10-13T02:16:38;43.20;;;15.68;;
59474;SDS011;45288;51.136;16.928;2023-10-13T02:19:04;36.67;;;14.88;;
59474;SDS011;45288;51.136;16.928;2023-10-13T02:21:33;41.13;;;15.37;;
59474;SDS011;45288;51.136;16.928;2023-10-13T02:24:08;40.65;;;15.25;;
59474;SDS011;45288;51.136;16.928;2023-10-13T02:26:39;45.25;;;16.45;;
59474;SDS011;45288;51.136;16.928;2023-10-13T02:29:05;41.90;;;15.40;;
59474;SDS011;45288;51.136;16.928;2023-10-13T02:31:39;51.83;;;16.95;;
59474;SDS011;45288;51.136;16.928;2023-10-13T02:34:05;39.05;;;15.23;;
59474;SDS011;45288;51.136;16.928;2023-10-13T02:36:34;44.55;;;15.55;;
59474;SDS011;45288;51.136;16.928;2023-10-13T02:39:13;44.13;;;16.17;;
59474;SDS011;45288;51.136;16.928;2023-10-13T02:41:39;42.03;;;15.48;;
59474;SDS011;45288;51.136;16.928;2023-10-13T02:44:07;40.25;;;15.40;;
59474;SDS011;45288;51.136;16.928;2023-10-13T02:46:34;45.63;;;16.30;;
59474;SDS011;45288;51.136;16.928;2023-10-13T02:49:05;39.15;;;15.13;;
59474;SDS011;45288;51.136;16.928;2023-10-13T02:51:40;39.03;;;15.40;;
59474;SDS011;45288;51.136;16.928;2023-10-13T02:54:09;40.92;;;15.88;;
59474;SDS011;45288;51.136;16.928;2023-10-13T02:56:44;46.13;;;16.45;;
59474;SDS011;45288;51.136;16.928;2023-10-13T02:59:15;39.80;;;16.08;;
59474;SDS011;45288;51.136;16.928;2023-10-13T03:01:41;38.37;;;15.00;;
59474;SDS011;45288;51.136;16.928;2023-10-13T03:04:06;39.00;;;15.38;;
59474;SDS011;45288;51.136;16.928;2023-10-13T03:06:34;41.50;;;16.02;;
59474;SDS011;45288;51.136;16.928;2023-10-13T03:09:18;45.90;;;15.50;;
59474;SDS011;45288;51.136;16.928;2023-10-13T03:11:44;45.03;;;16.15;;
59474;SDS011;45288;51.136;16.928;2023-10-13T03:14:15;42.20;;;16.05;;
59474;SDS011;45288;51.136;16.928;2023-10-13T03:17:10;40.85;;;15.23;;
59474;SDS011;45288;51.136;16.928;2023-10-13T03:19:46;42.20;;;16.40;;
59474;SDS011;45288;51.136;16.928;2023-10-13T03:22:16;41.15;;;15.80;;
59474;SDS011;45288;51.136;16.928;2023-10-13T03:24:42;44.65;;;15.65;;
59474;SDS011;45288;51.136;16.928;2023-10-13T03:27:18;45.53;;;16.25;;
59474;SDS011;45288;51.136;16.928;2023-10-13T03:29:48;45.00;;;16.02;;
59474;SDS011;45288;51.136;16.928;2023-10-13T03:32:19;44.75;;;15.55;;
59474;SDS011;45288;51.136;16.928;2023-10-13T03:34:46;47.03;;;16.15;;
59474;SDS011;45288;51.136;16.928;2023-10-13T03:37:27;37.40;;;14.45;;
59474;SDS011;45288;51.136;16.928;2023-10-13T03:40:09;39.15;;;14.73;;
59474;SDS011;45288;51.136;16.928;2023-10-13T03:42:48;40.03;;;14.95;;
59474;SDS011;45288;51.136;16.928;2023-10-13T03:45:26;43.87;;;16.27;;
59474;SDS011;45288;51.136;16.928;2023-10-13T03:47:51;42.58;;;15.57;;
59474;SDS011;45288;51.136;16.928;2023-10-13T03:50:17;32.78;;;13.52;;
59474;SDS011;45288;51.136;16.928;2023-10-13T03:52:55;36.25;;;14.32;;
59474;SDS011;45288;51.136;16.928;2023-10-13T03:55:24;35.00;;;14.03;;
59474;SDS011;45288;51.136;16.928;2023-10-13T03:57:52;38.65;;;14.23;;
59474;SDS011;45288;51.136;16.928;2023-10-13T04:00:22;31.50;;;13.63;;
59474;SDS011;45288;51.136;16.928;2023-10-13T04:02:53;38.40;;;14.63;;
59474;SDS011;45288;51.136;16.928;2023-10-13T04:05:31;33.40;;;14.20;;
59474;SDS011;45288;51.136;16.928;2023-10-13T04:08:20;38.50;;;14.80;;
59474;SDS011;45288;51.136;16.928;2023-10-13T04:10:56;37.63;;;14.53;;
59474;SDS011;45288;51.136;16.928;2023-10-13T04:13:21;43.97;;;16.15;;
59474;SDS011;45288;51.136;16.928;2023-10-13T04:16:09;37.20;;;14.87;;
59474;SDS011;45288;51.136;16.928;2023-10-13T04:19:00;38.35;;;14.05;;
59474;SDS011;45288;51.136;16.928;2023-10-13T04:21:26;35.88;;;14.73;;
59474;SDS011;45288;51.136;16.928;2023-10-13T04:24:05;37.15;;;14.80;;
59474;SDS011;45288;51.136;16.928;2023-10-13T04:26:44;37.03;;;15.30;;
59474;SDS011;45288;51.136;16.928;2023-10-13T04:29:29;35.90;;;14.27;;
59474;SDS011;45288;51.136;16.928;2023-10-13T04:32:12;31.05;;;14.48;;
59474;SDS011;45288;51.136;16.928;2023-10-13T04:34:44;35.53;;;14.13;;
59474;SDS011;45288;51.136;16.928;2023-10-13T04:37:14;36.92;;;15.65;;
59474;SDS011;45288;51.136;16.928;2023-10-13T04:39:55;43.22;;;16.58;;
59474;SDS011;45288;51.136;16.928;2023-10-13T04:42:37;44.43;;;16.90;;
59474;SDS011;45288;51.136;16.928;2023-10-13T04:45:18;37.67;;;15.57;;
59474;SDS011;45288;51.136;16.928;2023-10-13T04:48:04;41.70;;;16.17;;
59474;SDS011;45288;51.136;16.928;2023-10-13T04:50:43;34.97;;;14.85;;
59474;SDS011;45288;51.136;16.928;2023-10-13T04:53:13;40.97;;;15.80;;
59474;SDS011;45288;51.136;16.928;2023-10-13T04:55:54;34.13;;;15.50;;
59474;SDS011;45288;51.136;16.928;2023-10-13T04:58:29;38.85;;;16.75;;
59474;SDS011;45288;51.136;16.928;2023-10-13T05:01:04;39.42;;;16.77;;
59474;SDS011;45288;51.136;16.928;2023-10-13T05:03:48;39.63;;;16.60;;
59474;SDS011;45288;51.136;16.928;2023-10-13T05:06:19;39.45;;;16.27;;
59474;SDS011;45288;51.136;16.928;2023-10-13T05:09:04;41.17;;;17.10;;
59474;SDS011;45288;51.136;16.928;2023-10-13T05:11:48;40.67;;;16.50;;
59474;SDS011;45288;51.136;16.928;2023-10-13T05:14:33;47.08;;;17.30;;
59474;SDS011;45288;51.136;16.928;2023-10-13T05:17:17;38.97;;;16.37;;
59474;SDS011;45288;51.136;16.928;2023-10-13T05:20:02;42.15;;;17.02;;
59474;SDS011;45288;51.136;16.928;2023-10-13T05:22:46;41.38;;;16.77;;
59474;SDS011;45288;51.136;16.928;2023-10-13T05:25:34;37.23;;;15.77;;
59474;SDS011;45288;51.136;16.928;2023-10-13T05:28:19;41.38;;;16.38;;
59474;SDS011;45288;51.136;16.928;2023-10-13T05:31:03;40.93;;;17.63;;
59474;SDS011;45288;51.136;16.928;2023-10-13T05:33:47;40.73;;;16.93;;
59474;SDS011;45288;51.136;16.928;2023-10-13T05:36:33;40.45;;;16.63;;
59474;SDS011;45288;51.136;16.928;2023-10-13T05:39:17;39.07;;;16.17;;
59474;SDS011;45288;51.136;16.928;2023-10-13T05:42:01;39.17;;;16.77;;
59474;SDS011;45288;51.136;16.928;2023-10-13T05:44:46;45.22;;;18.38;;
59474;SDS011;45288;51.136;16.928;2023-10-13T05:47:30;42.80;;;16.40;;
59474;SDS011;45288;51.136;16.928;2023-10-13T05:50:12;40.35;;;16.95;;
59474;SDS011;45288;51.136;16.928;2023-10-13T05:52:54;41.53;;;17.33;;
59474;SDS011;45288;51.136;16.928;2023-10-13T05:55:29;42.22;;;16.67;;
59474;SDS011;45288;51.136;16.928;2023-10-13T05:58:14;46.15;;;18.83;;
59474;SDS011;45288;51.136;16.928;2023-10-13T06:00:59;47.72;;;18.80;;
59474;SDS011;45288;51.136;16.928;2023-10-13T06:03:43;44.75;;;19.25;;
59474;SDS011;45288;51.136;16.928;2023-10-13T06:06:28;46.20;;;19.20;;
59474;SDS011;45288;51.136;16.928;2023-10-13T06:09:12;48.30;;;19.93;;
59474;SDS011;45288;51.136;16.928;2023-10-13T06:11:57;49.00;;;19.10;;
59474;SDS011;45288;51.136;16.928;2023-10-13T06:14:45;45.42;;;19.25;;
59474;SDS011;45288;51.136;16.928;2023-10-13T06:17:29;45.47;;;19.87;;
59474;SDS011;45288;51.136;16.928;2023-10-13T06:20:14;51.05;;;21.95;;
59474;SDS011;45288;51.136;16.928;2023-10-13T06:22:58;43.97;;;20.02;;
59474;SDS011;45288;51.136;16.928;2023-10-13T06:25:49;51.85;;;24.27;;
59474;SDS011;45288;51.136;16.928;2023-10-13T06:28:35;104.93;;;95.75;;
59474;SDS011;45288;51.136;16.928;2023-10-13T06:31:07;61.83;;;35.40;;
59474;SDS011;45288;51.136;16.928;2023-10-13T06:33:33;58.60;;;39.13;;
59474;SDS011;45288;51.136;16.928;2023-10-13T06:36:05;61.28;;;38.05;;
59474;SDS011;45288;51.136;16.928;2023-10-13T06:38:35;77.03;;;68.33;;
59474;SDS011;45288;51.136;16.928;2023-10-13T06:41:04;52.08;;;22.60;;
59474;SDS011;45288;51.136;16.928;2023-10-13T06:43:36;57.30;;;23.83;;
59474;SDS011;45288;51.136;16.928;2023-10-13T06:46:09;49.43;;;22.40;;
59474;SDS011;45288;51.136;16.928;2023-10-13T06:48:40;50.20;;;22.48;;
59474;SDS011;45288;51.136;16.928;2023-10-13T06:51:06;54.33;;;34.75;;
59474;SDS011;45288;51.136;16.928;2023-10-13T06:53:47;70.07;;;54.90;;
59474;SDS011;45288;51.136;16.928;2023-10-13T06:56:13;46.30;;;21.05;;
59474;SDS011;45288;51.136;16.928;2023-10-13T06:58:44;59.40;;;28.17;;
59474;SDS011;45288;51.136;16.928;2023-10-13T07:01:10;46.70;;;28.60;;
59474;SDS011;45288;51.136;16.928;2023-10-13T07:03:41;50.13;;;25.50;;
59474;SDS011;45288;51.136;16.928;2023-10-13T07:06:08;72.43;;;64.68;;
59474;SDS011;45288;51.136;16.928;2023-10-13T07:08:37;44.55;;;22.75;;
59474;SDS011;45288;51.136;16.928;2023-10-13T07:11:03;47.80;;;21.00;;
59474;SDS011;45288;51.136;16.928;2023-10-13T07:13:33;48.90;;;25.85;;
59474;SDS011;45288;51.136;16.928;2023-10-13T07:16:12;53.92;;;39.00;;
59474;SDS011;45288;51.136;16.928;2023-10-13T07:18:38;44.27;;;20.33;;
59474;SDS011;45288;51.136;16.928;2023-10-13T07:21:15;67.60;;;61.20;;
59474;SDS011;45288;51.136;16.928;2023-10-13T07:23:41;48.22;;;31.83;;
59474;SDS011;45288;51.136;16.928;2023-10-13T07:26:15;44.95;;;21.48;;
59474;SDS011;45288;51.136;16.928;2023-10-13T07:28:41;45.80;;;25.08;;
59474;SDS011;45288;51.136;16.928;2023-10-13T07:31:12;50.58;;;28.48;;
59474;SDS011;45288;51.136;16.928;2023-10-13T07:33:38;52.22;;;44.03;;
59474;SDS011;45288;51.136;16.928;2023-10-13T07:36:07;49.53;;;20.90;;
59474;SDS011;45288;51.136;16.928;2023-10-13T07:38:44;40.92;;;20.75;;
59474;SDS011;45288;51.136;16.928;2023-10-13T07:41:14;73.95;;;66.38;;
59474;SDS011;45288;51.136;16.928;2023-10-13T07:43:41;46.33;;;18.67;;
59474;SDS011;45288;51.136;16.928;2023-10-13T07:46:07;47.13;;;20.05;;
59474;SDS011;45288;51.136;16.928;2023-10-13T07:48:36;42.72;;;18.02;;
59474;SDS011;45288;51.136;16.928;2023-10-13T07:51:02;40.78;;;17.13;;
59474;SDS011;45288;51.136;16.928;2023-10-13T07:53:29;60.00;;;51.13;;
59474;SDS011;45288;51.136;16.928;2023-10-13T07:56:00;37.37;;;16.23;;
59474;SDS011;45288;51.136;16.928;2023-10-13T07:58:31;33.75;;;15.68;;
59474;SDS011;45288;51.136;16.928;2023-10-13T08:00:59;51.08;;;21.52;;
59474;SDS011;45288;51.136;16.928;2023-10-13T08:03:35;39.65;;;16.38;;
59474;SDS011;45288;51.136;16.928;2023-10-13T08:06:02;42.45;;;17.27;;
59474;SDS011;45288;51.136;16.928;2023-10-13T08:08:32;37.38;;;15.88;;
59474;SDS011;45288;51.136;16.928;2023-10-13T08:11:07;38.58;;;16.92;;
59474;SDS011;45288;51.136;16.928;2023-10-13T08:13:48;38.47;;;15.30;;
59474;SDS011;45288;51.136;16.928;2023-10-13T08:16:28;37.42;;;21.23;;
59474;SDS011;45288;51.136;16.928;2023-10-13T08:19:13;25.73;;;12.70;;
59474;SDS011;45288;51.136;16.928;2023-10-13T08:21:45;35.13;;;14.63;;
59474;SDS011;45288;51.136;16.928;2023-10-13T08:24:19;31.57;;;13.53;;
59474;SDS011;45288;51.136;16.928;2023-10-13T08:26:53;35.20;;;13.40;;
59474;SDS011;45288;51.136;16.928;2023-10-13T08:29:37;28.33;;;11.80;;
59474;SDS011;45288;51.136;16.928;2023-10-13T08:32:26;25.92;;;11.35;;
59474;SDS011;45288;51.136;16.928;2023-10-13T08:34:55;29.30;;;11.30;;
59474;SDS011;45288;51.136;16.928;2023-10-13T08:37:29;27.77;;;11.68;;
59474;SDS011;45288;51.136;16.928;2023-10-13T08:39:58;29.00;;;12.18;;
59474;SDS011;45288;51.136;16.928;2023-10-13T08:42:31;28.70;;;11.90;;
59474;SDS011;45288;51.136;16.928;2023-10-13T08:45:20;28.40;;;11.95;;
59474;SDS011;45288;51.136;16.928;2023-10-13T08:47:54;29.08;;;12.48;;
59474;SDS011;45288;51.136;16.928;2023-10-13T08:50:37;29.85;;;12.38;;
59474;SDS011;45288;51.136;16.928;2023-10-13T08:53:20;31.30;;;12.60;;
59474;SDS011;45288;51.136;16.928;2023-10-13T08:56:05;31.20;;;12.23;;
59474;SDS011;45288;51.136;16.928;2023-10-13T08:58:41;28.25;;;12.02;;
59474;SDS011;45288;51.136;16.928;2023-10-13T09:01:20;28.67;;;11.73;;
59474;SDS011;45288;51.136;16.928;2023-10-13T09:04:05;38.70;;;13.90;;
59474;SDS011;45288;51.136;16.928;2023-10-13T09:06:47;24.73;;;10.45;;
59474;SDS011;45288;51.136;16.928;2023-10-13T09:09:15;21.63;;;10.23;;
59474;SDS011;45288;51.136;16.928;2023-10-13T09:11:54;32.25;;;12.35;;
59474;SDS011;45288;51.136;16.928;2023-10-13T09:14:42;25.30;;;10.57;;
59474;SDS011;45288;51.136;16.928;2023-10-13T09:17:09;27.33;;;11.05;;
59474;SDS011;45288;51.136;16.928;2023-10-13T09:19:49;24.90;;;10.65;;
59474;SDS011;45288;51.136;16.928;2023-10-13T09:22:28;27.67;;;10.30;;
59474;SDS011;45288;51.136;16.928;2023-10-13T09:25:01;24.58;;;9.93;;
59474;SDS011;45288;51.136;16.928;2023-10-13T09:27:29;24.83;;;9.77;;
59474;SDS011;45288;51.136;16.928;2023-10-13T09:29:58;26.42;;;9.80;;
59474;SDS011;45288;51.136;16.928;2023-10-13T09:32:44;23.50;;;9.48;;
59474;SDS011;45288;51.136;16.928;2023-10-13T09:35:18;26.73;;;10.30;;
59474;SDS011;45288;51.136;16.928;2023-10-13T09:37:44;23.88;;;9.63;;
59474;SDS011;45288;51.136;16.928;2023-10-13T09:40:16;28.13;;;10.35;;
59474;SDS011;45288;51.136;16.928;2023-10-13T09:42:59;28.13;;;9.95;;
59474;SDS011;45288;51.136;16.928;2023-10-13T09:45:30;28.27;;;10.63;;
59474;SDS011;45288;51.136;16.928;2023-10-13T09:48:02;29.75;;;10.80;;
59474;SDS011;45288;51.136;16.928;2023-10-13T09:50:36;74.07;;;66.07;;
59474;SDS011;45288;51.136;16.928;2023-10-13T09:53:05;733.57;;;673.40;;
59474;SDS011;45288;51.136;16.928;2023-10-13T09:55:38;902.13;;;829.65;;
59474;SDS011;45288;51.136;16.928;2023-10-13T09:58:08;573.85;;;526.10;;
59474;SDS011;45288;51.136;16.928;2023-10-13T10:00:40;732.28;;;671.67;;
59474;SDS011;45288;51.136;16.928;2023-10-13T10:03:07;222.63;;;204.50;;
59474;SDS011;45288;51.136;16.928;2023-10-13T10:05:55;60.72;;;54.50;;
59474;SDS011;45288;51.136;16.928;2023-10-13T10:08:29;63.73;;;57.80;;
59474;SDS011;45288;51.136;16.928;2023-10-13T10:11:00;135.25;;;124.70;;
59474;SDS011;45288;51.136;16.928;2023-10-13T10:13:38;472.55;;;432.73;;
59474;SDS011;45288;51.136;16.928;2023-10-13T10:16:10;574.38;;;525.55;;
59474;SDS011;45288;51.136;16.928;2023-10-13T10:18:41;331.17;;;304.92;;
59474;SDS011;45288;51.136;16.928;2023-10-13T10:21:06;449.70;;;411.83;;
59474;SDS011;45288;51.136;16.928;2023-10-13T10:23:40;739.78;;;678.85;;
59474;SDS011;45288;51.136;16.928;2023-10-13T10:26:09;818.50;;;751.33;;
59474;SDS011;45288;51.136;16.928;2023-10-13T10:28:40;191.63;;;176.60;;
59474;SDS011;45288;51.136;16.928;2023-10-13T10:31:09;441.88;;;405.63;;
59474;SDS011;45288;51.136;16.928;2023-10-13T10:33:38;66.95;;;61.10;;
59474;SDS011;45288;51.136;16.928;2023-10-13T10:36:04;60.25;;;54.72;;
59474;SDS011;45288;51.136;16.928;2023-10-13T10:38:30;80.97;;;73.72;;
59474;SDS011;45288;51.136;16.928;2023-10-13T10:41:04;215.25;;;198.50;;
59474;SDS011;45288;51.136;16.928;2023-10-13T10:43:35;305.55;;;281.38;;
59474;SDS011;45288;51.136;16.928;2023-10-13T10:46:10;233.97;;;216.00;;
59474;SDS011;45288;51.136;16.928;2023-10-13T10:48:37;148.90;;;137.20;;
59474;SDS011;45288;51.136;16.928;2023-10-13T10:51:11;349.58;;;320.80;;
59474;SDS011;45288;51.136;16.928;2023-10-13T10:54:00;491.25;;;449.95;;
59474;SDS011;45288;51.136;16.928;2023-10-13T10:56:38;389.48;;;357.65;;
59474;SDS011;45288;51.136;16.928;2023-10-13T10:59:04;348.55;;;320.40;;
59474;SDS011;45288;51.136;16.928;2023-10-13T11:01:31;414.40;;;379.90;;
59474;SDS011;45288;51.136;16.928;2023-10-13T11:04:05;390.95;;;358.73;;
59474;SDS011;45288;51.136;16.928;2023-10-13T11:06:37;206.10;;;190.73;;
59474;SDS011;45288;51.136;16.928;2023-10-13T11:09:11;219.70;;;202.50;;
59474;SDS011;45288;51.136;16.928;2023-10-13T11:11:52;161.68;;;148.98;;
59474;SDS011;45288;51.136;16.928;2023-10-13T11:14:25;114.70;;;106.20;;
59474;SDS011;45288;51.136;16.928;2023-10-13T11:16:51;142.90;;;131.60;;
59474;SDS011;45288;51.136;16.928;2023-10-13T11:19:19;87.95;;;81.18;;
59474;SDS011;45288;51.136;16.928;2023-10-13T11:21:53;101.65;;;93.63;;
59474;SDS011;45288;51.136;16.928;2023-10-13T11:24:22;76.03;;;69.85;;
59474;SDS011;45288;51.136;16.928;2023-10-13T11:26:48;62.87;;;56.93;;
59474;SDS011;45288;51.136;16.928;2023-10-13T11:29:18;45.20;;;41.05;;
59474;SDS011;45288;51.136;16.928;2023-10-13T11:31:48;38.10;;;32.85;;
59474;SDS011;45288;51.136;16.928;2023-10-13T11:34:32;42.77;;;38.17;;
59474;SDS011;45288;51.136;16.928;2023-10-13T11:37:07;30.73;;;12.05;;
59474;SDS011;45288;51.136;16.928;2023-10-13T11:39:51;40.47;;;33.22;;
59474;SDS011;45288;51.136;16.928;2023-10-13T11:42:17;22.65;;;8.20;;
59474;SDS011;45288;51.136;16.928;2023-10-13T11:44:43;27.10;;;8.70;;
59474;SDS011;45288;51.136;16.928;2023-10-13T11:47:09;24.67;;;8.55;;
59474;SDS011;45288;51.136;16.928;2023-10-13T11:49:53;25.98;;;8.70;;
59474;SDS011;45288;51.136;16.928;2023-10-13T11:52:23;24.40;;;7.93;;
59474;SDS011;45288;51.136;16.928;2023-10-13T11:54:51;27.90;;;8.75;;
59474;SDS011;45288;51.136;16.928;2023-10-13T11:57:17;24.30;;;7.80;;
59474;SDS011;45288;51.136;16.928;2023-10-13T11:59:45;27.47;;;7.87;;
59474;SDS011;45288;51.136;16.928;2023-10-13T12:02:19;26.42;;;8.32;;
59474;SDS011;45288;51.136;16.928;2023-10-13T12:04:51;27.70;;;8.32;;
59474;SDS011;45288;51.136;16.928;2023-10-13T12:07:20;27.53;;;8.50;;
59474;SDS011;45288;51.136;16.928;2023-10-13T12:09:48;25.10;;;8.00;;
59474;SDS011;45288;51.136;16.928;2023-10-13T12:12:19;21.73;;;7.13;;
59474;SDS011;45288;51.136;16.928;2023-10-13T12:14:45;23.90;;;7.43;;
59474;SDS011;45288;51.136;16.928;2023-10-13T12:17:30;23.98;;;7.30;;
59474;SDS011;45288;51.136;16.928;2023-10-13T12:20:02;30.35;;;8.55;;
59474;SDS011;45288;51.136;16.928;2023-10-13T12:22:31;25.95;;;7.72;;
59474;SDS011;45288;51.136;16.928;2023-10-13T12:25:08;21.50;;;7.07;;
59474;SDS011;45288;51.136;16.928;2023-10-13T12:27:52;24.98;;;7.85;;
59474;SDS011;45288;51.136;16.928;2023-10-13T12:30:22;22.33;;;7.05;;
59474;SDS011;45288;51.136;16.928;2023-10-13T12:33:01;29.90;;;8.50;;
59474;SDS011;45288;51.136;16.928;2023-10-13T12:35:35;25.38;;;7.85;;
59474;SDS011;45288;51.136;16.928;2023-10-13T12:38:10;25.75;;;7.70;;
59474;SDS011;45288;51.136;16.928;2023-10-13T12:40:56;27.67;;;8.18;;
59474;SDS011;45288;51.136;16.928;2023-10-13T12:43:40;20.70;;;6.40;;
59474;SDS011;45288;51.136;16.928;2023-10-13T12:46:24;28.88;;;9.30;;
59474;SDS011;45288;51.136;16.928;2023-10-13T12:49:09;28.42;;;9.80;;
59474;SDS011;45288;51.136;16.928;2023-10-13T12:51:53;26.23;;;9.80;;
59474;SDS011;45288;51.136;16.928;2023-10-13T12:54:19;31.75;;;10.32;;
59474;SDS011;45288;51.136;16.928;2023-10-13T12:56:49;24.35;;;7.95;;
59474;SDS011;45288;51.136;16.928;2023-10-13T12:59:22;29.75;;;8.95;;
59474;SDS011;45288;51.136;16.928;2023-10-13T13:01:52;29.92;;;8.93;;
59474;SDS011;45288;51.136;16.928;2023-10-13T13:04:18;29.17;;;8.83;;
59474;SDS011;45288;51.136;16.928;2023-10-13T13:06:51;26.90;;;8.20;;
59474;SDS011;45288;51.136;16.928;2023-10-13T13:09:19;31.00;;;9.23;;
59474;SDS011;45288;51.136;16.928;2023-10-13T13:11:52;32.50;;;9.65;;
59474;SDS011;45288;51.136;16.928;2023-10-13T13:14:17;28.42;;;8.40;;
59474;SDS011;45288;51.136;16.928;2023-10-13T13:16:43;29.13;;;8.73;;
59474;SDS011;45288;51.136;16.928;2023-10-13T13:19:13;30.38;;;9.15;;
59474;SDS011;45288;51.136;16.928;2023-10-13T13:21:39;27.85;;;8.50;;
59474;SDS011;45288;51.136;16.928;2023-10-13T13:24:06;29.13;;;9.38;;
59474;SDS011;45288;51.136;16.928;2023-10-13T13:26:39;27.33;;;8.75;;
59474;SDS011;45288;51.136;16.928;2023-10-13T13:29:07;24.07;;;7.70;;
59474;SDS011;45288;51.136;16.928;2023-10-13T13:31:37;28.50;;;8.95;;
59474;SDS011;45288;51.136;16.928;2023-10-13T13:34:07;29.70;;;9.38;;
59474;SDS011;45288;51.136;16.928;2023-10-13T13:36:35;21.90;;;7.65;;
59474;SDS011;45288;51.136;16.928;2023-10-13T13:39:01;36.00;;;10.23;;
59474;SDS011;45288;51.136;16.928;2023-10-13T13:41:27;31.50;;;10.38;;
59474;SDS011;45288;51.136;16.928;2023-10-13T13:43:53;35.93;;;11.20;;
59474;SDS011;45288;51.136;16.928;2023-10-13T13:46:23;31.77;;;9.43;;
59474;SDS011;45288;51.136;16.928;2023-10-13T13:49:07;30.38;;;9.13;;
59474;SDS011;45288;51.136;16.928;2023-10-13T13:51:33;26.70;;;8.45;;
59474;SDS011;45288;51.136;16.928;2023-10-13T13:53:59;30.90;;;9.32;;
59474;SDS011;45288;51.136;16.928;2023-10-13T13:56:25;31.30;;;8.60;;
59474;SDS011;45288;51.136;16.928;2023-10-13T13:58:52;28.42;;;8.77;;
59474;SDS011;45288;51.136;16.928;2023-10-13T14:01:19;26.00;;;8.32;;
59474;SDS011;45288;51.136;16.928;2023-10-13T14:03:47;27.30;;;8.35;;
59474;SDS011;45288;51.136;16.928;2023-10-13T14:06:16;35.38;;;10.35;;
59474;SDS011;45288;51.136;16.928;2023-10-13T14:08:46;26.52;;;8.43;;
59474;SDS011;45288;51.136;16.928;2023-10-13T14:11:14;31.45;;;9.68;;
59474;SDS011;45288;51.136;16.928;2023-10-13T14:13:48;29.63;;;8.63;;
59474;SDS011;45288;51.136;16.928;2023-10-13T14:16:20;37.30;;;10.52;;
59474;SDS011;45288;51.136;16.928;2023-10-13T14:18:46;25.27;;;8.13;;
59474;SDS011;45288;51.136;16.928;2023-10-13T14:21:12;35.72;;;10.82;;
59474;SDS011;45288;51.136;16.928;2023-10-13T14:23:43;32.00;;;8.95;;
59474;SDS011;45288;51.136;16.928;2023-10-13T14:26:11;31.23;;;9.18;;
59474;SDS011;45288;51.136;16.928;2023-10-13T14:28:37;31.50;;;9.20;;
59474;SDS011;45288;51.136;16.928;2023-10-13T14:31:12;33.38;;;9.70;;
59474;SDS011;45288;51.136;16.928;2023-10-13T14:33:39;32.42;;;9.15;;
59474;SDS011;45288;51.136;16.928;2023-10-13T14:36:05;32.17;;;10.03;;
59474;SDS011;45288;51.136;16.928;2023-10-13T14:38:30;27.47;;;8.63;;
59474;SDS011;45288;51.136;16.928;2023-10-13T14:40:57;31.75;;;10.02;;
59474;SDS011;45288;51.136;16.928;2023-10-13T14:43:23;33.10;;;10.17;;